Time;durP1;ratioP1;P1;durP2;ratioP2;P2;SDS_P1;SDS_P2;PMS_P1;PMS_P2;Temp;Humidity;BMP_temperature;BMP_pressure;BME280_temperature;BME280_humidity;BME280_pressure;Samples;Min_cycle;Max_cycle;Signal;HPM_P1;HPM_P2
2021/09/22 00:00:30;;;;;;;;;;;;;;;21.44;54.43;102293.22;2092636;28;964;-58
2021/09/22 00:01:30;;;;;;;;;;;;;;;21.48;54.26;102292.28;2092569;28;1015;-57
2021/09/22 00:02:30;;;;;;;;;;;;;;;21.53;53.58;102294.88;2092177;28;1941;-58
2021/09/22 00:03:30;;;;;;;;;;;;;;;21.53;53.72;102302.09;2092525;28;809;-58
2021/09/22 00:04:31;;;;;;;;;;;;;;;21.50;53.45;102297.63;2092261;28;969;-58
2021/09/22 00:05:31;;;;;;;;;;;;;;;21.53;53.81;102296.72;2092546;28;1008;-58
2021/09/22 00:06:31;;;;;;;;;;;;;;;21.50;55.01;102291.34;2092538;28;992;-58
2021/09/22 00:07:31;;;;;;;;;;;;;;;21.40;54.80;102293.31;2092557;28;969;-58
2021/09/22 00:08:31;;;;;;;;;;;;;;;21.44;54.69;102295.06;2092562;28;822;-58
2021/09/22 00:09:31;;;;;;;;;;;;;;;21.48;53.70;102297.66;2092155;28;811;-58
2021/09/22 00:10:32;;;;;;;;;;;;;;;21.48;54.44;102294.97;2092439;28;972;-58
2021/09/22 00:11:32;;;;;;;;;;;;;;;21.46;56.38;102288.72;2092506;28;1032;-58
2021/09/22 00:12:32;;;;;;;;;;;;;;;21.38;55.71;102290.63;2092528;28;880;-58
2021/09/22 00:13:32;;;;;;;;;;;;;;;21.42;53.62;102289.66;2092462;28;850;-58
2021/09/22 00:14:33;;;;;;;;;;;;;;;21.42;53.22;102286.09;2092457;28;1177;-58
2021/09/22 00:15:33;;;;;;;;;;;;;;;21.50;51.86;102288.66;2092288;28;803;-58
2021/09/22 00:16:33;;;;;;;;;;;;;;;21.38;54.11;102295.13;2092498;28;972;-58
2021/09/22 00:17:34;;;;;;;;;;;;;;;21.39;53.30;102291.53;2092447;28;973;-58
2021/09/22 00:18:34;;;;;;;;;;;;;;;21.37;54.68;102290.66;2092510;28;873;-57
2021/09/22 00:19:34;;;;;;;;;;;;;;;21.45;54.29;102289.63;2092493;28;823;-58
2021/09/22 00:20:34;;;;;;;;;;;;;;;21.47;56.17;102290.50;2092059;28;964;-58
2021/09/22 00:21:35;;;;;;;;;;;;;;;21.45;54.87;102291.44;2092408;28;1027;-58
2021/09/22 00:22:35;;;;;;;;;;;;;;;21.44;53.51;102290.53;2092333;28;1898;-58
2021/09/22 00:23:37;;;;;;;;;;;;;;;21.42;53.64;102286.09;2092394;28;1201;-58
2021/09/22 00:24:37;;;;;;;;;;;;;;;21.44;53.03;102292.34;2092544;28;823;-58
2021/09/22 00:25:37;;;;;;;;;;;;;;;21.39;53.65;102294.22;2092167;28;780;-58
2021/09/22 00:26:37;;;;;;;;;;;;;;;21.35;54.51;102295.16;2092191;28;866;-58
2021/09/22 00:27:37;;;;;;;;;;;;;;;21.36;53.14;102294.25;2092037;28;1052;-58
2021/09/22 00:28:38;;;;;;;;;;;;;;;21.40;53.44;102293.31;2091917;28;775;-58
2021/09/22 00:29:38;;;;;;;;;;;;;;;21.44;53.27;102289.66;2092437;28;1053;-58
2021/09/22 00:30:38;;;;;;;;;;;;;;;21.33;54.92;102287.09;2091747;28;862;-58
2021/09/22 00:31:38;;;;;;;;;;;;;;;21.31;54.42;102295.22;2091495;28;780;-58
2021/09/22 00:32:39;;;;;;;;;;;;;;;21.31;54.11;102289.81;2092404;28;779;-58
2021/09/22 00:33:40;;;;;;;;;;;;;;;21.25;53.63;102289.00;2092366;28;686;-58
2021/09/22 00:34:40;;;;;;;;;;;;;;;21.29;54.74;102290.72;2092220;28;1222;-58
2021/09/22 00:35:40;;;;;;;;;;;;;;;21.38;53.07;102290.63;2092397;28;874;-58
2021/09/22 00:36:40;;;;;;;;;;;;;;;21.35;54.31;102293.34;2092094;28;1028;-58
2021/09/22 00:37:40;;;;;;;;;;;;;;;21.38;54.13;102290.63;2092151;28;824;-58
2021/09/22 00:38:41;;;;;;;;;;;;;;;21.30;53.46;102298.81;2092303;28;771;-58
2021/09/22 00:39:41;;;;;;;;;;;;;;;21.39;53.82;102287.00;2092324;28;930;-58
2021/09/22 00:40:41;;;;;;;;;;;;;;;21.40;53.96;102294.19;2092425;28;811;-58
2021/09/22 00:41:42;;;;;;;;;;;;;;;21.36;54.42;102294.25;2092369;28;1976;-58
2021/09/22 00:42:42;;;;;;;;;;;;;;;21.36;54.28;102284.34;2091844;28;1001;-58
2021/09/22 00:43:42;;;;;;;;;;;;;;;21.30;55.21;102290.72;2092240;28;772;-58
2021/09/22 00:44:56;;;;;;;;;;;;;;;21.35;55.18;102293.34;2092343;28;902;-58
2021/09/22 00:46:00;;;;;;;;;;;;;;;21.35;54.24;102290.66;2092123;28;882;-58
2021/09/22 00:47:00;;;;;;;;;;;;;;;21.40;54.32;102288.78;2092238;28;839;-58
2021/09/22 00:48:01;;;;;;;;;;;;;;;21.30;53.61;102285.34;2091853;28;981;-58
2021/09/22 00:49:01;;;;;;;;;;;;;;;21.35;54.03;102289.78;2092208;28;1044;-60
2021/09/22 00:50:01;;;;;;;;;;;;;;;21.32;53.90;102279.91;2092231;28;825;-58
2021/09/22 00:51:03;;;;;;;;;;;;;;;21.28;52.74;102279.09;2092024;28;1013;-58
2021/09/22 00:52:03;;;;;;;;;;;;;;;21.28;54.22;102281.78;2092199;28;981;-58
2021/09/22 00:53:03;;;;;;;;;;;;;;;21.30;53.59;102281.75;2091687;28;843;-58
2021/09/22 00:54:04;;;;;;;;;;;;;;;21.26;53.75;102285.38;2091378;28;854;-58
2021/09/22 00:55:04;;;;;;;;;;;;;;;21.31;52.70;102283.53;2091667;28;850;-58
2021/09/22 00:56:05;;;;;;;;;;;;;;;21.25;54.39;102284.50;2092035;28;1389;-58
2021/09/22 00:57:05;;;;;;;;;;;;;;;21.26;54.70;102280.00;2092191;28;803;-58
2021/09/22 00:58:05;;;;;;;;;;;;;;;;;;2092157;28;950;-58
2021/09/22 00:59:05;;;;;;;;;;;;;;;21.22;54.28;102289.03;2092117;28;1060;-58
2021/09/22 01:00:05;;;;;;;;;;;;;;;;;;2092111;28;851;-58
2021/09/22 01:01:06;;;;;;;;;;;;;;;21.18;54.24;102290.88;2092060;28;1056;-58
2021/09/22 01:02:06;;;;;;;;;;;;;;;21.22;55.43;102295.34;2091741;28;1898;-58
2021/09/22 01:03:07;;;;;;;;;;;;;;;21.30;53.36;102289.81;2092168;28;925;-58
2021/09/22 01:04:07;;;;;;;;;;;;;;;21.31;54.27;102297.00;2092163;28;1162;-58
2021/09/22 01:05:07;;;;;;;;;;;;;;;21.28;53.96;102297.03;2092113;28;977;-58
2021/09/22 01:06:07;;;;;;;;;;;;;;;21.22;53.87;102302.50;2092094;28;989;-58
2021/09/22 01:07:09;;;;;;;;;;;;;;;21.23;54.17;102299.81;2091793;28;839;-58
2021/09/22 01:08:10;;;;;;;;;;;;;;;21.24;53.79;102298.91;2092062;28;989;-58
2021/09/22 01:09:11;;;;;;;;;;;;;;;21.24;54.15;102303.38;2092151;28;850;-58
2021/09/22 01:10:12;;;;;;;;;;;;;;;21.31;52.62;102300.59;2092068;28;1328;-58
2021/09/22 01:11:12;;;;;;;;;;;;;;;21.33;55.06;102303.25;2091970;28;866;-58
2021/09/22 01:12:12;;;;;;;;;;;;;;;21.24;54.56;102301.59;2091813;28;1427;-58
2021/09/22 01:13:13;;;;;;;;;;;;;;;21.28;53.12;102307.81;2091805;28;771;-58
2021/09/22 01:14:13;;;;;;;;;;;;;;;21.29;52.32;102296.13;2092035;28;870;-58
2021/09/22 01:15:28;;;;;;;;;;;;;;;21.31;53.22;102303.28;2091982;28;985;-58
2021/09/22 01:16:28;;;;;;;;;;;;;;;21.23;53.88;102299.81;2091583;28;877;-58
2021/09/22 01:17:28;;;;;;;;;;;;;;;21.28;52.50;102300.63;2091927;28;1048;-58
2021/09/22 01:18:28;;;;;;;;;;;;;;;21.32;54.00;102307.78;2091691;28;784;-58
2021/09/22 01:19:29;;;;;;;;;;;;;;;21.24;55.16;102303.38;2091858;28;929;-58
2021/09/22 01:20:30;;;;;;;;;;;;;;;21.23;54.45;102302.50;2091998;28;800;-58
2021/09/22 01:21:30;;;;;;;;;;;;;;;21.20;53.02;102302.53;2092042;28;791;-58
2021/09/22 01:22:30;;;;;;;;;;;;;;;21.23;53.78;102290.81;2091996;28;1898;-58
2021/09/22 01:23:30;;;;;;;;;;;;;;;;;;2091518;28;1447;-58
2021/09/22 01:24:30;;;;;;;;;;;;;;;21.23;54.47;102297.13;2092113;28;783;-58
2021/09/22 01:25:31;;;;;;;;;;;;;;;21.17;54.45;102294.50;2091923;28;866;-58
2021/09/22 01:26:32;;;;;;;;;;;;;;;21.23;53.90;102291.72;2091941;28;977;-58
2021/09/22 01:27:32;;;;;;;;;;;;;;;21.18;54.13;102296.28;2083118;28;900;-58
2021/09/22 01:28:32;;;;;;;;;;;;;;;21.25;53.05;102291.69;2083062;28;807;-58
2021/09/22 01:29:34;;;;;;;;;;;;;;;;;;2091410;28;980;-58
2021/09/22 01:30:34;;;;;;;;;;;;;;;21.17;54.55;102294.50;2091947;28;897;-58
2021/09/22 01:31:35;;;;;;;;;;;;;;;21.25;53.61;102299.78;2091942;28;1051;-58
2021/09/22 01:32:35;;;;;;;;;;;;;;;21.20;54.15;102290.88;2091856;28;970;-58
2021/09/22 01:33:35;;;;;;;;;;;;;;;21.25;52.88;102298.00;2091816;28;1156;-58
2021/09/22 01:34:35;;;;;;;;;;;;;;;21.14;53.41;102290.06;2091372;28;1173;-58
2021/09/22 01:35:37;;;;;;;;;;;;;;;21.14;54.61;102290.06;2091798;28;858;-58
2021/09/22 01:36:39;;;;;;;;;;;;;;;21.12;54.05;102290.97;2091842;28;1175;-58
2021/09/22 01:37:39;;;;;;;;;;;;;;;21.12;53.66;102290.97;2091840;28;822;-58
2021/09/22 01:38:39;;;;;;;;;;;;;;;21.10;55.15;102287.41;2091869;28;855;-58
2021/09/22 01:39:40;;;;;;;;;;;;;;;21.03;54.42;102294.69;2091698;28;793;-58
2021/09/22 01:40:51;;;;;;;;;;;;;;;21.08;54.59;102295.50;2091692;28;854;-58
2021/09/22 01:41:51;;;;;;;;;;;;;;;21.07;53.64;102298.22;2091677;28;1979;-58
2021/09/22 01:42:51;;;;;;;;;;;;;;;21.10;53.85;102296.38;2091260;28;834;-58
2021/09/22 01:43:51;;;;;;;;;;;;;;;21.14;54.21;102292.75;2091657;28;1043;-58
2021/09/22 01:44:52;;;;;;;;;;;;;;;21.10;53.96;102287.41;2091802;28;826;-58
2021/09/22 01:45:52;;;;;;;;;;;;;;;21.19;53.95;102295.38;2091540;28;855;-58
2021/09/22 01:46:52;;;;;;;;;;;;;;;21.18;53.48;102289.09;2091782;28;1052;-58
2021/09/22 01:47:52;;;;;;;;;;;;;;;21.12;54.68;102291.88;2091855;28;998;-58
2021/09/22 01:48:53;;;;;;;;;;;;;;;21.17;53.93;102295.41;2091783;28;830;-58
2021/09/22 01:49:58;;;;;;;;;;;;;;;21.11;54.28;102298.16;2091763;28;830;-58
2021/09/22 01:50:59;;;;;;;;;;;;;;;21.15;53.17;102294.53;2091328;28;901;-58
2021/09/22 01:52:01;;;;;;;;;;;;;;;21.09;54.04;102297.31;2091726;28;1636;-58
2021/09/22 01:53:01;;;;;;;;;;;;;;;21.15;54.55;102294.53;2091810;28;893;-58
2021/09/22 01:54:01;;;;;;;;;;;;;;;21.14;54.04;102294.53;2091720;28;768;-58
2021/09/22 01:55:03;;;;;;;;;;;;;;;21.18;53.19;102297.19;2091721;28;846;-58
2021/09/22 01:56:04;;;;;;;;;;;;;;;21.16;54.39;102295.41;2091197;28;1292;-58
2021/09/22 01:57:04;;;;;;;;;;;;;;;21.21;53.84;102300.72;2090998;28;925;-58
2021/09/22 01:58:04;;;;;;;;;;;;;;;21.20;53.87;102288.19;2091247;28;1033;-58
2021/09/22 01:59:04;;;;;;;;;;;;;;;21.23;53.92;102293.50;2091648;28;909;-59
2021/09/22 02:00:05;;;;;;;;;;;;;;;21.29;52.93;102296.13;2091719;28;969;-58
2021/09/22 02:01:08;;;;;;;;;;;;;;;21.17;54.51;102306.19;2091648;28;834;-58
2021/09/22 02:02:09;;;;;;;;;;;;;;;21.23;52.84;102302.50;2091591;28;1890;-58
2021/09/22 02:03:09;;;;;;;;;;;;;;;21.24;53.93;102300.69;2091680;28;748;-58
2021/09/22 02:04:10;;;;;;;;;;;;;;;21.01;54.97;102304.59;2091547;28;791;-59
2021/09/22 02:05:10;;;;;;;;;;;;;;;21.07;55.20;102301.81;2091399;28;1028;-58
2021/09/22 02:06:12;;;;;;;;;;;;;;;21.11;54.47;102303.56;2091605;28;792;-58
2021/09/22 02:07:12;;;;;;;;;;;;;;;21.10;54.40;102296.38;2091542;28;1165;-58
2021/09/22 02:08:12;;;;;;;;;;;;;;;21.11;54.15;102302.66;2091615;28;853;-58
2021/09/22 02:09:12;;;;;;;;;;;;;;;21.17;53.33;102298.09;2091601;28;985;-58
2021/09/22 02:10:12;;;;;;;;;;;;;;;21.24;54.03;102292.59;2091233;28;814;-58
2021/09/22 02:11:13;;;;;;;;;;;;;;;21.17;53.91;102295.41;2091411;28;795;-58
2021/09/22 02:12:13;;;;;;;;;;;;;;;21.13;53.43;102287.34;2091574;28;918;-58
2021/09/22 02:13:13;;;;;;;;;;;;;;;21.05;54.44;102289.25;2091119;28;830;-58
2021/09/22 02:14:13;;;;;;;;;;;;;;;21.11;53.01;102287.41;2091579;28;711;-58
2021/09/22 02:15:13;;;;;;;;;;;;;;;21.12;53.51;102283.78;2091409;28;762;-58
2021/09/22 02:16:14;;;;;;;;;;;;;;;21.14;54.38;102291.84;2091368;28;934;-58
2021/09/22 02:17:14;;;;;;;;;;;;;;;21.20;53.59;102286.38;2091492;28;1004;-58
2021/09/22 02:18:14;;;;;;;;;;;;;;;21.15;53.47;102290.94;2091741;28;711;-58
2021/09/22 02:19:15;;;;;;;;;;;;;;;21.18;53.77;102291.81;2091561;28;875;-59
2021/09/22 02:20:15;;;;;;;;;;;;;;;21.09;54.83;102291.00;2091580;28;1009;-59
2021/09/22 02:21:15;;;;;;;;;;;;;;;21.07;54.73;102293.72;2091093;28;837;-58
2021/09/22 02:22:15;;;;;;;;;;;;;;;21.08;53.96;102295.50;2091494;28;1960;-58
2021/09/22 02:23:15;;;;;;;;;;;;;;;21.09;53.29;102291.00;2091468;28;1423;-58
2021/09/22 02:24:16;;;;;;;;;;;;;;;21.14;54.85;102294.53;2092000;28;859;-58
2021/09/22 02:25:16;;;;;;;;;;;;;;;21.07;54.61;102296.44;2091577;28;831;-58
2021/09/22 02:26:16;;;;;;;;;;;;;;;21.16;53.61;102290.94;2091266;28;794;-58
2021/09/22 02:27:19;;;;;;;;;;;;;;;21.14;55.02;102289.16;2091343;28;1025;-58
2021/09/22 02:28:19;;;;;;;;;;;;;;;21.13;54.39;102290.97;2091516;28;852;-58
2021/09/22 02:29:20;;;;;;;;;;;;;;;21.12;53.52;102288.28;2091508;28;901;-58
2021/09/22 02:30:21;;;;;;;;;;;;;;;21.05;54.57;102292.84;2091543;28;803;-58
2021/09/22 02:31:22;;;;;;;;;;;;;;;20.90;56.02;102290.34;2091524;28;862;-58
2021/09/22 02:32:22;;;;;;;;;;;;;;;21.00;53.68;102292.03;2091225;28;784;-57
2021/09/22 02:33:22;;;;;;;;;;;;;;;20.98;53.30;102301.94;2091485;28;1024;-58
2021/09/22 02:34:22;;;;;;;;;;;;;;;21.07;54.22;102291.03;2091296;28;1192;-58
2021/09/22 02:35:22;;;;;;;;;;;;;;;21.11;54.44;102298.16;2091560;28;929;-57
2021/09/22 02:36:23;;;;;;;;;;;;;;;21.18;53.45;102291.81;2091499;28;830;-57
2021/09/22 02:37:23;;;;;;;;;;;;;;;21.21;53.58;102289.94;2091109;28;1032;-58
2021/09/22 02:38:23;;;;;;;;;;;;;;;21.29;54.00;102291.66;2091422;28;768;-58
2021/09/22 02:39:23;;;;;;;;;;;;;;;21.37;53.77;102293.34;2091477;28;889;-58
2021/09/22 02:40:24;;;;;;;;;;;;;;;21.43;53.93;102283.34;2091403;28;1024;-57
2021/09/22 02:41:24;;;;;;;;;;;;;;;21.39;53.97;102288.81;2091431;28;710;-58
2021/09/22 02:42:24;;;;;;;;;;;;;;;21.38;53.86;102285.22;2091307;28;1979;-58
2021/09/22 02:43:24;;;;;;;;;;;;;;;21.42;53.63;102280.69;2090819;28;977;-57
2021/09/22 02:44:25;;;;;;;;;;;;;;;21.22;54.05;102283.63;2091504;28;981;-57
2021/09/22 02:45:25;;;;;;;;;;;;;;;21.30;54.44;102279.03;2091370;28;1127;-58
2021/09/22 02:46:25;;;;;;;;;;;;;;;21.26;55.96;102286.28;2091484;28;835;-58
2021/09/22 02:47:25;;;;;;;;;;;;;;;21.17;54.42;102283.72;2091401;28;1021;-58
2021/09/22 02:48:26;;;;;;;;;;;;;;;21.10;55.20;102282.00;2091258;28;776;-58
2021/09/22 02:49:26;;;;;;;;;;;;;;;21.05;54.68;102281.19;2091420;28;851;-58
2021/09/22 02:50:26;;;;;;;;;;;;;;;21.23;54.38;102282.72;2091394;28;981;-58
2021/09/22 02:51:26;;;;;;;;;;;;;;;21.10;54.56;102237.13;2091355;28;866;-58
2021/09/22 02:52:26;;;;;;;;;;;;;;;21.16;54.19;102233.44;2091447;28;866;-58
2021/09/22 02:53:27;;;;;;;;;;;;;;;21.36;53.92;102243.91;2091239;28;1017;-58
2021/09/22 02:54:27;;;;;;;;;;;;;;;21.36;55.37;102248.44;2092007;28;862;-57
2021/09/22 02:55:27;;;;;;;;;;;;;;;21.33;53.27;102249.34;2093109;28;866;-58
2021/09/22 02:56:27;;;;;;;;;;;;;;;21.38;53.78;102231.31;2093106;28;1032;-58
2021/09/22 02:57:27;;;;;;;;;;;;;;;21.42;51.87;102227.66;2093160;28;787;-57
2021/09/22 02:58:27;;;;;;;;;;;;;;;21.48;52.62;102257.22;2092720;28;985;-58
2021/09/22 02:59:28;;;;;;;;;;;;;;;21.28;54.30;102311.41;2092387;28;978;-58
2021/09/22 03:00:28;;;;;;;;;;;;;;;21.24;53.84;102298.91;2092380;28;835;-57
2021/09/22 03:01:28;;;;;;;;;;;;;;;21.26;51.82;102298.88;2092833;28;1024;-58
2021/09/22 03:02:28;;;;;;;;;;;;;;;21.22;52.62;102295.34;2093065;28;1945;-58
2021/09/22 03:03:29;;;;;;;;;;;;;;;21.07;54.70;102292.81;2093006;28;981;-58
2021/09/22 03:04:30;;;;;;;;;;;;;;;21.13;54.41;102299.03;2093070;28;863;-58
2021/09/22 03:05:30;;;;;;;;;;;;;;;21.14;54.50;102298.13;2092973;28;990;-58
2021/09/22 03:06:31;;;;;;;;;;;;;;;21.11;53.82;102298.16;2092977;28;993;-58
2021/09/22 03:07:31;;;;;;;;;;;;;;;21.06;54.52;102289.25;2092918;28;834;-58
2021/09/22 03:08:31;;;;;;;;;;;;;;;21.06;53.43;102300.03;2092786;28;890;-58
2021/09/22 03:09:32;;;;;;;;;;;;;;;21.13;54.29;102299.03;2092971;28;822;-58
2021/09/22 03:10:32;;;;;;;;;;;;;;;21.13;53.89;102299.03;2093029;28;851;-58
2021/09/22 03:11:32;;;;;;;;;;;;;;;21.04;54.70;102293.78;2092933;28;952;-58
2021/09/22 03:12:32;;;;;;;;;;;;;;;21.08;53.00;102282.03;2093021;28;846;-57
2021/09/22 03:13:33;;;;;;;;;;;;;;;21.07;53.76;102282.03;2092557;28;779;-58
2021/09/22 03:14:33;;;;;;;;;;;;;;;20.93;54.55;102285.78;2092973;28;818;-57
2021/09/22 03:15:33;;;;;;;;;;;;;;;21.02;54.48;102285.69;2092918;28;784;-58
2021/09/22 03:16:34;;;;;;;;;;;;;;;20.99;55.36;102288.41;2092957;28;856;-58
2021/09/22 03:17:34;;;;;;;;;;;;;;;21.01;55.82;102288.41;2092987;28;866;-58
2021/09/22 03:18:34;;;;;;;;;;;;;;;20.91;54.15;102284.94;2092860;28;992;-58
2021/09/22 03:19:34;;;;;;;;;;;;;;;20.85;57.46;102291.28;2092699;28;879;-58
2021/09/22 03:20:35;;;;;;;;;;;;;;;20.76;56.59;102285.09;2092960;28;830;-58
2021/09/22 03:21:35;;;;;;;;;;;;;;;20.82;54.94;102280.56;2092876;28;898;-58
2021/09/22 03:22:35;;;;;;;;;;;;;;;20.97;54.73;102281.28;2092842;28;1886;-58
2021/09/22 03:23:35;;;;;;;;;;;;;;;21.00;54.27;102279.44;2092909;28;1181;-58
2021/09/22 03:24:35;;;;;;;;;;;;;;;20.93;55.46;102274.16;2092492;28;1150;-58
2021/09/22 03:25:36;;;;;;;;;;;;;;;20.99;54.41;102282.16;2092837;28;858;-58
2021/09/22 03:26:36;;;;;;;;;;;;;;;20.96;55.17;102279.50;2092871;28;1070;-58
2021/09/22 03:27:36;;;;;;;;;;;;;;;20.87;55.75;102283.22;2093338;28;814;-57
2021/09/22 03:28:37;;;;;;;;;;;;;;;21.08;54.66;102276.66;2092877;28;763;-58
2021/09/22 03:29:37;;;;;;;;;;;;;;;21.01;56.87;102283.91;2092610;28;973;-58
2021/09/22 03:30:37;;;;;;;;;;;;;;;21.01;58.40;102280.34;2092708;28;784;-57
2021/09/22 03:31:37;;;;;;;;;;;;;;;20.96;56.84;102283.06;2092817;28;1062;-58
2021/09/22 03:32:39;;;;;;;;;;;;;;;20.94;55.43;102270.53;2092794;28;807;-57
2021/09/22 03:33:39;;;;;;;;;;;;;;;20.96;57.12;102271.41;2092733;28;1279;-57
2021/09/22 03:34:39;;;;;;;;;;;;;;;20.97;56.69;102273.19;2092675;28;1263;-58
2021/09/22 03:35:39;;;;;;;;;;;;;;;20.95;55.01;102272.31;2085041;28;1404;-58
2021/09/22 03:36:39;;;;;;;;;;;;;;;20.99;56.10;102269.56;2084653;28;1017;-58
2021/09/22 03:37:39;;;;;;;;;;;;;;;20.92;55.94;102277.75;2084569;28;783;-58
2021/09/22 03:38:41;;;;;;;;;;;;;;;20.93;55.05;102276.84;2084535;28;855;-58
2021/09/22 03:39:41;;;;;;;;;;;;;;;20.94;56.96;102282.19;2084510;28;787;-58
2021/09/22 03:40:41;;;;;;;;;;;;;;;20.84;57.12;102278.72;2084306;28;977;-58
2021/09/22 03:41:41;;;;;;;;;;;;;;;20.90;55.74;102276.88;2084434;28;1028;-58
2021/09/22 03:42:42;;;;;;;;;;;;;;;20.98;56.81;102288.44;2084444;28;1959;-59
2021/09/22 03:43:42;;;;;;;;;;;;;;;20.91;56.55;102284.03;2084479;28;926;-58
2021/09/22 03:44:42;;;;;;;;;;;;;;;20.94;56.11;102276.81;2084511;28;899;-58
2021/09/22 03:45:42;;;;;;;;;;;;;;;20.96;55.65;102271.41;2084435;28;973;-58
2021/09/22 03:46:42;;;;;;;;;;;;;;;21.08;56.47;102275.75;2084067;28;984;-58
2021/09/22 03:47:42;;;;;;;;;;;;;;;21.12;55.62;102273.00;2084460;28;850;-58
2021/09/22 03:48:43;;;;;;;;;;;;;;;21.11;54.84;102267.63;2084430;28;1009;-57
2021/09/22 03:49:43;;;;;;;;;;;;;;;21.12;55.66;102280.19;2084662;28;981;-58
2021/09/22 03:50:43;;;;;;;;;;;;;;;21.14;54.75;102278.38;2084474;28;775;-58
2021/09/22 03:51:43;;;;;;;;;;;;;;;21.20;54.82;102277.41;2084031;28;1032;-58
2021/09/22 03:52:43;;;;;;;;;;;;;;;21.10;56.13;102277.53;2084440;28;851;-57
2021/09/22 03:53:43;;;;;;;;;;;;;;;21.03;55.37;102274.00;2084432;28;1024;-58
2021/09/22 03:54:44;;;;;;;;;;;;;;;21.06;55.50;102272.19;2084389;28;985;-58
2021/09/22 03:55:44;;;;;;;;;;;;;;;21.11;57.13;102271.22;2084359;28;775;-58
2021/09/22 03:56:44;;;;;;;;;;;;;;;21.10;54.94;102271.22;2084236;28;898;-58
2021/09/22 03:57:44;;;;;;;;;;;;;;;21.00;55.49;102271.34;2084171;28;810;-57
2021/09/22 03:58:44;;;;;;;;;;;;;;;21.08;55.57;102260.50;2084417;28;874;-58
2021/09/22 03:59:44;;;;;;;;;;;;;;;21.06;55.15;102267.69;2084367;28;977;-58
2021/09/22 04:00:45;;;;;;;;;;;;;;;21.11;56.01;102259.53;2084369;28;1004;-58
2021/09/22 04:01:45;;;;;;;;;;;;;;;21.09;55.57;102254.19;2084309;28;783;-58
2021/09/22 04:02:45;;;;;;;;;;;;;;;21.09;55.12;102256.88;2084266;28;1949;-58
2021/09/22 04:03:45;;;;;;;;;;;;;;;21.81;53.22;102256.75;2084298;28;767;-58
2021/09/22 04:04:45;;;;;;;;;;;;;;;22.14;53.87;102256.22;2084173;28;830;-58
2021/09/22 04:05:46;;;;;;;;;;;;;;;22.40;52.92;102247.63;2084014;28;883;-58
2021/09/22 04:06:46;;;;;;;;;;;;;;;22.54;52.75;102241.97;2084281;28;981;-58
2021/09/22 04:07:46;;;;;;;;;;;;;;;22.40;53.13;102244.03;2084286;28;780;-58
2021/09/22 04:08:46;;;;;;;;;;;;;;;22.61;52.04;102250.88;2084285;28;973;-58
2021/09/22 04:09:46;;;;;;;;;;;;;;;22.70;52.25;102250.66;2084292;28;756;-58
2021/09/22 04:10:47;;;;;;;;;;;;;;;22.83;50.18;102259.44;2083936;28;851;-58
2021/09/22 04:11:47;;;;;;;;;;;;;;;22.87;50.77;102252.13;2084252;28;1044;-58
2021/09/22 04:12:47;;;;;;;;;;;;;;;22.93;50.00;102243.91;2084266;28;993;-58
2021/09/22 04:13:47;;;;;;;;;;;;;;;23.01;50.64;102243.72;2084194;28;1028;-58
2021/09/22 04:14:47;;;;;;;;;;;;;;;23.02;50.97;102249.09;2084458;28;937;-58
2021/09/22 04:15:47;;;;;;;;;;;;;;;23.03;52.20;102258.09;2084027;28;878;-58
2021/09/22 04:16:48;;;;;;;;;;;;;;;23.03;51.23;102255.38;2084028;28;958;-58
2021/09/22 04:17:48;;;;;;;;;;;;;;;23.12;50.70;102255.19;2084211;28;883;-58
2021/09/22 04:18:48;;;;;;;;;;;;;;;23.24;50.61;102254.09;2084224;28;1418;-58
2021/09/22 04:19:48;;;;;;;;;;;;;;;23.21;49.99;102257.69;2084210;28;1028;-58
2021/09/22 04:20:49;;;;;;;;;;;;;;;23.27;50.74;102253.13;2084263;28;862;-58
2021/09/22 04:21:49;;;;;;;;;;;;;;;23.33;51.35;102251.16;2083733;28;1882;-58
2021/09/22 04:22:49;;;;;;;;;;;;;;;23.31;50.30;102244.00;2084195;28;981;-58
2021/09/22 04:23:49;;;;;;;;;;;;;;;23.34;50.94;102249.34;2090893;28;1207;-58
2021/09/22 04:24:49;;;;;;;;;;;;;;;23.40;51.50;102241.09;2092508;28;898;-58
2021/09/22 04:25:49;;;;;;;;;;;;;;;23.45;49.38;102244.59;2092399;28;981;-58
2021/09/22 04:26:49;;;;;;;;;;;;;;;23.43;52.08;102240.13;2092130;28;1056;-58
2021/09/22 04:27:50;;;;;;;;;;;;;;;23.45;50.14;102241.88;2092301;28;1017;-58
2021/09/22 04:28:50;;;;;;;;;;;;;;;23.51;52.55;102233.63;2092423;28;795;-58
2021/09/22 04:29:50;;;;;;;;;;;;;;;23.42;51.89;102239.25;2092487;28;919;-58
2021/09/22 04:30:51;;;;;;;;;;;;;;;23.49;49.69;102232.78;2092446;28;1017;-58
2021/09/22 04:31:51;;;;;;;;;;;;;;;23.50;50.74;102231.84;2092391;28;880;-58
2021/09/22 04:32:51;;;;;;;;;;;;;;;23.52;50.89;102234.50;2092063;28;1020;-59
2021/09/22 04:33:51;;;;;;;;;;;;;;;23.67;49.83;102235.94;2092198;28;1343;-58
2021/09/22 04:34:51;;;;;;;;;;;;;;;23.68;50.50;102232.31;2092424;28;768;-58
2021/09/22 04:35:52;;;;;;;;;;;;;;;23.57;52.49;102240.69;2092323;28;808;-58
2021/09/22 04:36:53;;;;;;;;;;;;;;;23.54;54.61;102236.25;2092392;28;882;-58
2021/09/22 04:37:54;;;;;;;;;;;;;;;23.65;51.18;102237.78;2091956;28;929;-58
2021/09/22 04:38:54;;;;;;;;;;;;;;;23.62;52.02;102238.75;2092304;28;854;-58
2021/09/22 04:39:54;;;;;;;;;;;;;;;23.61;52.46;102239.69;2092299;28;830;-58
2021/09/22 04:40:54;;;;;;;;;;;;;;;23.56;51.03;102241.63;2092373;28;1001;-58
2021/09/22 04:41:54;;;;;;;;;;;;;;;23.63;51.09;102235.13;2092215;28;1902;-58
2021/09/22 04:42:55;;;;;;;;;;;;;;;23.64;52.58;102236.00;2092293;28;977;-58
2021/09/22 04:43:55;;;;;;;;;;;;;;;23.70;51.60;102238.56;2091765;28;858;-58
2021/09/22 04:44:55;;;;;;;;;;;;;;;23.70;53.10;102235.84;2092099;28;1009;-58
2021/09/22 04:45:56;;;;;;;;;;;;;;;23.71;51.94;102234.94;2092067;28;843;-58
2021/09/22 04:46:56;;;;;;;;;;;;;;;23.65;54.03;102237.78;2092269;28;772;-58
2021/09/22 04:47:57;;;;;;;;;;;;;;;23.69;54.06;102234.06;2092188;28;1002;-58
2021/09/22 04:48:57;;;;;;;;;;;;;;;23.70;52.20;102235.84;2091841;28;816;-58
2021/09/22 04:49:58;;;;;;;;;;;;;;;23.81;51.69;102232.91;2092273;28;783;-58
2021/09/22 04:50:58;;;;;;;;;;;;;;;23.87;53.94;102231.84;2092248;28;796;-58
2021/09/22 04:51:58;;;;;;;;;;;;;;;23.81;54.63;102228.38;2092267;28;1177;-58
2021/09/22 04:52:58;;;;;;;;;;;;;;;23.79;52.89;102235.63;2092229;28;965;-58
2021/09/22 04:53:58;;;;;;;;;;;;;;;23.85;50.52;102229.16;2092046;28;977;-58
2021/09/22 04:54:58;;;;;;;;;;;;;;;23.88;50.71;102231.78;2091983;28;993;-58
2021/09/22 04:55:59;;;;;;;;;;;;;;;23.84;52.35;102228.28;2092291;28;855;-57
2021/09/22 04:56:59;;;;;;;;;;;;;;;23.80;51.66;102229.28;2092636;28;1235;-58
2021/09/22 04:57:59;;;;;;;;;;;;;;;23.90;52.45;102229.06;2092180;28;1045;-58
2021/09/22 04:58:59;;;;;;;;;;;;;;;23.90;49.55;102237.19;2092141;28;1112;-58
2021/09/22 04:59:59;;;;;;;;;;;;;;;23.89;53.36;102240.81;2091778;28;906;-58
2021/09/22 05:01:02;;;;;;;;;;;;;;;23.92;51.00;102238.03;2092078;28;953;-58
2021/09/22 05:02:02;;;;;;;;;;;;;;;23.88;50.48;102229.09;2091939;28;1945;-58
2021/09/22 05:03:02;;;;;;;;;;;;;;;23.87;53.21;102234.56;2092165;28;830;-58
2021/09/22 05:04:03;;;;;;;;;;;;;;;23.91;50.71;102229.00;2092116;28;997;-58
2021/09/22 05:05:03;;;;;;;;;;;;;;;23.94;50.71;102226.22;2092104;28;1013;-58
2021/09/22 05:06:03;;;;;;;;;;;;;;;23.93;53.78;102234.41;2092107;28;1238;-58
2021/09/22 05:07:03;;;;;;;;;;;;;;;24.04;51.64;102224.22;2092116;28;1040;-58
2021/09/22 05:08:03;;;;;;;;;;;;;;;23.98;51.28;102229.75;2091746;28;768;-58
2021/09/22 05:09:04;;;;;;;;;;;;;;;23.99;52.23;102236.97;2092062;28;819;-58
2021/09/22 05:10:04;;;;;;;;;;;;;;;24.03;51.06;102224.25;2092116;28;1019;-58
2021/09/22 05:11:04;;;;;;;;;;;;;;;23.96;51.71;102237.91;2091998;28;1103;-58
2021/09/22 05:12:04;;;;;;;;;;;;;;;23.95;52.48;102233.41;2092060;28;791;-58
2021/09/22 05:13:07;;;;;;;;;;;;;;;23.95;52.48;102225.28;2091744;28;795;-58
2021/09/22 05:14:07;;;;;;;;;;;;;;;23.98;51.11;102227.06;2091908;28;865;-58
2021/09/22 05:15:07;;;;;;;;;;;;;;;23.98;54.01;102227.06;2092083;28;977;-58
2021/09/22 05:16:08;;;;;;;;;;;;;;;23.94;52.63;102223.50;2091982;28;925;-58
2021/09/22 05:17:08;;;;;;;;;;;;;;;23.94;56.44;102222.66;2091463;28;827;-58
2021/09/22 05:18:08;;;;;;;;;;;;;;;23.93;54.84;102232.56;2091947;28;1016;-58